Terminal Aerodrome Forecast
Issued by NWS Cleveland, OH

Home | Current Version | Previous Version | Graphics & Text | Print | Product List | Glossary Off
Versions: 1 2 3 4 5 6 7 8 9 10 11 12 13 14 15 16 17 18 19 20 21 22 23 24 25 26 27 28 29 30 31 32 33 34 35 36

000
FTUS41 KCLE 281300 AAB
TAFCLE
TAF AMD
KCLE 281359Z 2814/2918 01007KT P6SM SCT030 BKN035
     FM282000 01008KT P6SM FEW035
     FM290000 12004KT P6SM BKN250
     FM291100 14005KT P6SM BKN100=

USA.gov is the U.S. government's official web portal to all federal, state and local government web resources and services.